createdAt,value
2019-03-08T17:34:46.383Z,1010.92
2019-03-08T17:35:02.430Z,1010.92
2019-03-08T17:35:11.643Z,1010.92
2019-03-08T17:36:02.557Z,1010.92
2019-03-08T17:37:01.797Z,1010.92
2019-03-08T17:38:02.066Z,1010.72
2019-03-08T17:39:02.197Z,1010.72
2019-03-08T17:40:02.458Z,1010.72
2019-03-08T17:41:01.654Z,1010.72
2019-03-08T17:42:01.885Z,1010.65
2019-03-08T17:43:02.158Z,1010.65
2019-03-08T17:44:02.258Z,1010.65
2019-03-08T17:45:01.717Z,1010.65
2019-03-08T17:46:01.946Z,1010.79
2019-03-08T17:47:02.325Z,1010.79
2019-03-08T17:48:02.546Z,1010.79
2019-03-08T17:49:01.752Z,1010.79
2019-03-08T17:50:01.996Z,1010.78
2019-03-08T17:51:02.454Z,1010.78
2019-03-08T17:52:02.470Z,1010.78
2019-03-08T17:53:01.723Z,1010.78
2019-03-08T17:54:01.916Z,1010.6
2019-03-08T17:55:02.231Z,1010.6
2019-03-08T17:56:02.299Z,1010.6
2019-03-08T17:57:02.546Z,1010.6
2019-03-08T17:58:01.678Z,1010.55
2019-03-08T17:59:01.985Z,1010.55
2019-03-08T18:00:04.737Z,1010.55
2019-03-08T18:01:02.431Z,1010.55
2019-03-08T18:02:01.690Z,1010.63
2019-03-08T18:03:01.943Z,1010.63
2019-03-08T18:04:02.131Z,1010.63
2019-03-08T18:05:02.296Z,1010.63
2019-03-08T18:06:02.552Z,1010.65
2019-03-08T18:07:01.743Z,1010.65
2019-03-08T18:08:02.057Z,1010.65
2019-03-08T18:09:02.283Z,1010.65
2019-03-08T18:10:02.398Z,1010.68
2019-03-08T18:11:01.674Z,1010.68
2019-03-08T18:12:01.841Z,1010.68
2019-03-08T18:13:02.118Z,1010.68
2019-03-08T18:14:02.343Z,1010.54
2019-03-08T18:15:02.657Z,1010.54
2019-03-08T18:16:01.945Z,1010.54
2019-03-08T18:17:02.361Z,1010.54
2019-03-08T18:18:02.386Z,1010.59
2019-03-08T18:19:02.655Z,1010.59
2019-03-08T18:20:01.781Z,1010.59
2019-03-08T18:21:02.091Z,1010.59
2019-03-08T18:22:02.238Z,1010.66
2019-03-08T18:23:02.494Z,1010.66
2019-03-08T18:24:01.699Z,1010.66
2019-03-08T18:25:02.069Z,1010.66
2019-03-08T18:26:02.247Z,1010.56
2019-03-08T18:27:02.388Z,1010.56
2019-03-08T18:28:02.566Z,1010.56
2019-03-08T18:29:01.811Z,1010.56
2019-03-08T18:30:02.104Z,1010.44
2019-03-08T18:31:02.206Z,1010.44
2019-03-08T18:32:02.396Z,1010.44
2019-03-08T18:33:01.645Z,1010.44
2019-03-08T18:34:01.962Z,1010.47
2019-03-08T18:35:02.028Z,1010.47
2019-03-08T18:36:02.352Z,1010.47
2019-03-08T18:37:02.490Z,1010.47
2019-03-08T18:38:01.736Z,1010.41
2019-03-08T18:39:01.969Z,1010.41
2019-03-08T18:40:02.251Z,1010.41
2019-03-08T18:41:02.516Z,1010.41
2019-03-08T18:42:01.662Z,1010.36
2019-03-08T18:43:01.883Z,1010.36
2019-03-08T18:44:02.036Z,1010.36
2019-03-08T18:45:02.264Z,1010.36
2019-03-08T18:46:02.463Z,1010.28
2019-03-08T18:47:01.710Z,1010.28
2019-03-08T18:48:01.914Z,1010.28
2019-03-08T18:49:02.181Z,1010.28
2019-03-08T18:50:02.387Z,1010.1
2019-03-08T18:51:02.794Z,1010.1
2019-03-08T18:52:01.726Z,1010.1
2019-03-08T18:53:01.994Z,1010.1
2019-03-08T18:54:02.082Z,1009.97
2019-03-08T18:55:02.399Z,1009.97
2019-03-08T18:56:02.621Z,1009.97
2019-03-08T18:57:01.946Z,1009.97
2019-03-08T18:58:01.978Z,1009.89
2019-03-08T18:59:02.135Z,1009.89
2019-03-08T19:00:04.696Z,1009.89
2019-03-08T19:01:02.244Z,1009.89
2019-03-08T19:02:02.573Z,1009.86
2019-03-08T19:03:01.777Z,1009.86
2019-03-08T19:04:01.888Z,1009.86
2019-03-08T19:05:02.259Z,1009.64
2019-03-08T19:06:02.465Z,1009.64
2019-03-08T19:07:02.684Z,1009.64
2019-03-08T19:08:01.959Z,1009.64
2019-03-08T19:09:01.781Z,1009.66
2019-03-08T19:10:02.017Z,1009.66
2019-03-08T19:11:02.272Z,1009.66
2019-03-08T19:12:02.424Z,1009.66
2019-03-08T19:13:02.556Z,1009.66
2019-03-08T19:14:01.764Z,1009.66
2019-03-08T19:15:02.100Z,1009.66
2019-03-08T19:16:02.308Z,1009.66
2019-03-08T19:17:02.700Z,1009.48
2019-03-08T19:18:02.650Z,1009.48
2019-03-08T19:19:01.846Z,1009.48
2019-03-08T19:20:02.098Z,1009.48
2019-03-08T19:21:02.407Z,1009.65
2019-03-08T19:22:02.585Z,1009.65
2019-03-08T19:23:01.821Z,1009.65
2019-03-08T19:24:01.996Z,1009.65
2019-03-08T19:25:02.111Z,1009.55
2019-03-08T19:26:02.455Z,1009.55
2019-03-08T19:27:02.623Z,1009.55
2019-03-08T19:28:01.774Z,1009.55
2019-03-08T19:29:02.002Z,1009.45
2019-03-08T19:30:02.235Z,1009.45
2019-03-08T19:31:02.335Z,1009.45
2019-03-08T19:32:02.584Z,1009.45
2019-03-08T19:33:01.843Z,1009.24
2019-03-08T19:34:02.219Z,1009.24
2019-03-08T19:35:02.273Z,1009.24
2019-03-08T19:36:02.457Z,1009.24
2019-03-08T19:37:02.571Z,1009.51
2019-03-08T19:38:01.710Z,1009.51
2019-03-08T19:39:01.891Z,1009.51
2019-03-08T19:40:02.160Z,1009.51
2019-03-08T19:41:02.363Z,1009.45
2019-03-08T19:42:02.534Z,1009.45
2019-03-08T19:43:01.894Z,1009.45
2019-03-08T19:44:01.814Z,1009.45
2019-03-08T19:45:02.085Z,1009.37
2019-03-08T19:46:02.222Z,1009.37
2019-03-08T19:47:02.368Z,1009.37
2019-03-08T19:48:02.647Z,1009.37
2019-03-08T19:49:01.818Z,1009.19
2019-03-08T19:50:01.986Z,1009.19
2019-03-08T19:51:02.394Z,1009.19
2019-03-08T19:52:02.349Z,1009.19
2019-03-08T19:53:02.657Z,1009.18
2019-03-08T19:54:01.751Z,1009.18
2019-03-08T19:55:02.105Z,1009.18
2019-03-08T19:56:02.346Z,1009.18
2019-03-08T19:57:02.373Z,1009.27
2019-03-08T19:58:02.544Z,1009.27
2019-03-08T19:59:01.719Z,1009.27
2019-03-08T20:00:04.499Z,1009.27
2019-03-08T20:01:02.525Z,1009.18
2019-03-08T20:02:01.751Z,1009.18
2019-03-08T20:03:02.067Z,1009.18
2019-03-08T20:04:02.245Z,1009.18
2019-03-08T20:05:02.517Z,1009.21
2019-03-08T20:06:01.817Z,1009.21
2019-03-08T20:07:01.966Z,1009.21
2019-03-08T20:08:02.244Z,1009.21
2019-03-08T20:09:02.446Z,1009.27
2019-03-08T20:10:01.822Z,1009.27
2019-03-08T20:11:02.018Z,1009.27
2019-03-08T20:12:02.106Z,1009.27
2019-03-08T20:13:02.356Z,1009.3
2019-03-08T20:14:01.790Z,1009.3
2019-03-08T20:15:02.074Z,1009.3
2019-03-08T20:16:02.353Z,1009.3
2019-03-08T20:17:02.562Z,1009.32
2019-03-08T20:18:01.635Z,1009.32
2019-03-08T20:19:01.711Z,1009.32
2019-03-08T20:20:02.018Z,1009.32
2019-03-08T20:21:02.271Z,1009.39
2019-03-08T20:22:02.440Z,1009.39
2019-03-08T20:23:01.753Z,1009.39
2019-03-08T20:24:02.538Z,1009.39
2019-03-08T20:25:01.677Z,1009.32
2019-03-08T20:26:02.097Z,1009.32
2019-03-08T20:27:01.916Z,1009.32
2019-03-08T20:28:02.130Z,1009.32
2019-03-08T20:29:02.186Z,1009.01
2019-03-08T20:30:02.549Z,1009.01
2019-03-08T20:31:01.692Z,1009.01
2019-03-08T20:32:01.929Z,1009.01
2019-03-08T20:33:02.198Z,1008.97
2019-03-08T20:34:02.636Z,1008.97
2019-03-08T20:35:02.622Z,1008.97
2019-03-08T20:36:01.832Z,1008.97
2019-03-08T20:37:02.076Z,1008.74
2019-03-08T20:38:02.415Z,1008.74
2019-03-08T20:39:02.551Z,1008.74
2019-03-08T20:40:01.688Z,1008.74
2019-03-08T20:41:01.825Z,1008.57
2019-03-08T20:42:02.138Z,1008.57
2019-03-08T20:43:02.599Z,1008.57
2019-03-08T20:44:02.441Z,1008.57
2019-03-08T20:45:02.657Z,1008.41
2019-03-08T20:46:01.861Z,1008.41
2019-03-08T20:47:02.082Z,1008.41
2019-03-08T20:48:02.266Z,1008.41
2019-03-08T20:49:02.517Z,1008.4
2019-03-08T20:50:01.867Z,1008.4
2019-03-08T20:51:01.959Z,1008.4
2019-03-08T20:52:02.114Z,1008.4
2019-03-08T20:53:02.322Z,1008.4
2019-03-08T20:54:02.453Z,1008.4
2019-03-08T20:55:02.613Z,1008.4
2019-03-08T20:56:01.771Z,1008.38
2019-03-08T20:57:02.088Z,1008.38
2019-03-08T20:58:02.369Z,1008.38
2019-03-08T20:59:02.610Z,1008.38
2019-03-08T21:00:05.041Z,1008.22
2019-03-08T21:01:01.679Z,1008.22
2019-03-08T21:02:01.933Z,1008.22
2019-03-08T21:03:02.154Z,1008.22
2019-03-08T21:04:02.273Z,1008.01
2019-03-08T21:05:01.940Z,1008.01
2019-03-08T21:06:02.150Z,1008.01
2019-03-08T21:07:02.460Z,1008.01
2019-03-08T21:08:02.674Z,1007.87
2019-03-08T21:09:01.840Z,1007.87
2019-03-08T21:10:02.080Z,1007.87
2019-03-08T21:11:02.296Z,1007.87
2019-03-08T21:12:02.575Z,1007.83
2019-03-08T21:13:01.636Z,1007.83
2019-03-08T21:14:01.874Z,1007.83
2019-03-08T21:15:02.225Z,1007.83
2019-03-08T21:16:02.364Z,1007.66
2019-03-08T21:17:02.547Z,1007.66
2019-03-08T21:18:01.658Z,1007.66
2019-03-08T21:19:01.978Z,1007.66
2019-03-08T21:20:02.263Z,1007.51
2019-03-08T21:21:02.478Z,1007.51
2019-03-08T21:22:01.686Z,1007.51
2019-03-08T21:23:02.020Z,1007.51
2019-03-08T21:24:02.191Z,1007.34
2019-03-08T21:25:02.657Z,1007.34
2019-03-08T21:26:02.508Z,1007.34
2019-03-08T21:27:01.735Z,1007.34
2019-03-08T21:28:02.037Z,1007.27
2019-03-08T21:29:02.233Z,1007.27
2019-03-08T21:30:02.472Z,1007.27
2019-03-08T21:31:02.611Z,1007.27
2019-03-08T21:32:01.916Z,1007.12
2019-03-08T21:33:02.254Z,1007.12
2019-03-08T21:34:02.410Z,1007.12
2019-03-08T21:35:01.785Z,1007.12
2019-03-08T21:36:01.907Z,1007.1
2019-03-08T21:37:02.113Z,1007.1
2019-03-08T21:38:02.359Z,1007.1
2019-03-08T21:39:02.541Z,1007.1
2019-03-08T21:40:01.858Z,1007.02
2019-03-08T21:41:02.082Z,1007.02
2019-03-08T21:42:02.479Z,1007.02
2019-03-08T21:43:02.427Z,1007.02
2019-03-08T21:44:01.709Z,1007.11
2019-03-08T21:45:01.963Z,1007.11
2019-03-08T21:46:02.169Z,1007.11
2019-03-08T21:47:02.137Z,1007.11
2019-03-08T21:48:02.432Z,1007.17
2019-03-08T21:49:02.552Z,1007.17
2019-03-08T21:50:02.142Z,1007.17
2019-03-08T21:51:02.038Z,1007.17
2019-03-08T21:52:02.227Z,1006.99
2019-03-08T21:53:02.523Z,1006.99
2019-03-08T21:54:01.682Z,1006.99
2019-03-08T21:55:01.694Z,1006.99
2019-03-08T21:56:02.725Z,1006.89
2019-03-08T21:57:02.054Z,1006.89
2019-03-08T21:58:02.356Z,1006.89
2019-03-08T21:59:02.836Z,1006.89
2019-03-08T22:00:04.019Z,1006.77
2019-03-08T22:01:01.862Z,1006.77
2019-03-08T22:02:02.014Z,1006.77
2019-03-08T22:03:02.289Z,1006.77
2019-03-08T22:04:02.467Z,1006.69
2019-03-08T22:05:01.679Z,1006.69
2019-03-08T22:06:01.939Z,1006.69
2019-03-08T22:07:02.436Z,1006.69
2019-03-08T22:08:02.478Z,1006.6
2019-03-08T22:09:02.586Z,1006.6
2019-03-08T22:10:01.738Z,1006.6
2019-03-08T22:11:01.928Z,1006.6
2019-03-08T22:12:02.203Z,1006.38
2019-03-08T22:13:02.414Z,1006.38
2019-03-08T22:14:02.571Z,1006.38
2019-03-08T22:15:01.911Z,1006.38
2019-03-08T22:16:02.018Z,1006.41
2019-03-08T22:17:02.260Z,1006.41
2019-03-08T22:18:02.539Z,1006.41
2019-03-08T22:19:01.855Z,1006.41
2019-03-08T22:20:02.047Z,1006.37
2019-03-08T22:21:02.213Z,1006.37
2019-03-08T22:22:02.488Z,1006.37
2019-03-08T22:23:01.742Z,1006.37
2019-03-08T22:24:02.125Z,1006.14
2019-03-08T22:25:02.141Z,1006.14
2019-03-08T22:26:02.294Z,1006.14
2019-03-08T22:27:02.634Z,1006.14
2019-03-08T22:28:01.828Z,1006.13
2019-03-08T22:29:02.020Z,1006.13
2019-03-08T22:30:02.287Z,1006.13
2019-03-08T22:31:02.486Z,1006.13
2019-03-08T22:32:01.929Z,1005.91
2019-03-08T22:33:01.989Z,1005.91
2019-03-08T22:34:02.340Z,1005.91
2019-03-08T22:35:02.453Z,1005.89
2019-03-08T22:36:01.707Z,1005.89
2019-03-08T22:37:01.851Z,1005.89
2019-03-08T22:38:02.166Z,1005.89
2019-03-08T22:39:02.312Z,1005.76
2019-03-08T22:40:02.635Z,1005.76
2019-03-08T22:41:01.829Z,1005.76
2019-03-08T22:42:02.204Z,1005.76
2019-03-08T22:43:02.552Z,1005.79
2019-03-08T22:44:02.614Z,1005.79
2019-03-08T22:45:01.874Z,1005.79
2019-03-08T22:46:02.088Z,1005.79
2019-03-08T22:47:02.327Z,1005.48
2019-03-08T22:48:02.403Z,1005.48
2019-03-08T22:49:01.872Z,1005.48
2019-03-08T22:50:01.988Z,1005.48
2019-03-08T22:51:02.495Z,1005.37
2019-03-08T22:52:01.775Z,1005.37
2019-03-08T22:53:01.917Z,1005.37
2019-03-08T22:54:02.240Z,1005.37
2019-03-08T22:55:02.504Z,1005.25
2019-03-08T22:56:01.719Z,1005.25
2019-03-08T22:57:01.957Z,1005.25
2019-03-08T22:58:02.216Z,1005.25
2019-03-08T22:59:02.408Z,1005.37
2019-03-08T23:00:06.903Z,1005.37
2019-03-08T23:01:01.635Z,1005.37
2019-03-08T23:02:01.923Z,1005.37
2019-03-08T23:03:02.262Z,1005.19
2019-03-08T23:04:02.454Z,1005.19
2019-03-08T23:05:02.694Z,1005.19
2019-03-08T23:06:02.228Z,1005.19
2019-03-08T23:07:02.061Z,1005.19
2019-03-08T23:08:02.272Z,1005.19
2019-03-08T23:09:02.495Z,1005.19
2019-03-08T23:10:01.749Z,1005.19
2019-03-08T23:11:01.986Z,1005.06
2019-03-08T23:12:02.289Z,1005.06
2019-03-08T23:13:02.666Z,1005.06
2019-03-08T23:14:01.617Z,1005.06
2019-03-08T23:15:01.920Z,1004.95
2019-03-08T23:16:02.204Z,1004.95
2019-03-08T23:17:02.420Z,1004.95
2019-03-08T23:18:02.342Z,1004.95
2019-03-08T23:19:01.696Z,1004.93
2019-03-08T23:20:01.886Z,1004.93
2019-03-08T23:21:02.127Z,1004.93
2019-03-08T23:22:02.378Z,1004.93
2019-03-08T23:23:02.763Z,1004.79
2019-03-08T23:24:01.704Z,1004.79
2019-03-08T23:25:01.813Z,1004.79
2019-03-08T23:26:02.064Z,1004.79
2019-03-08T23:27:02.149Z,1004.77
2019-03-08T23:28:02.436Z,1004.77
2019-03-08T23:29:01.697Z,1004.77
2019-03-08T23:30:01.893Z,1004.77
2019-03-08T23:31:02.105Z,1004.65
2019-03-08T23:32:02.522Z,1004.65
2019-03-08T23:33:02.495Z,1004.65
2019-03-08T23:34:03.273Z,1004.65
2019-03-08T23:35:02.038Z,1004.64
2019-03-08T23:36:02.349Z,1004.64
2019-03-08T23:37:02.441Z,1004.64
2019-03-08T23:38:01.695Z,1004.64
2019-03-08T23:39:01.852Z,1004.63
2019-03-08T23:40:02.180Z,1004.63
2019-03-08T23:41:02.349Z,1004.63
2019-03-08T23:42:02.508Z,1004.63
2019-03-08T23:43:01.697Z,1004.59
2019-03-08T23:44:01.956Z,1004.59
2019-03-08T23:45:02.190Z,1004.59
2019-03-08T23:46:02.455Z,1004.59
2019-03-08T23:47:02.565Z,1004.6
2019-03-08T23:48:01.795Z,1004.6
2019-03-08T23:49:02.225Z,1004.6
2019-03-08T23:50:02.323Z,1004.6
2019-03-08T23:51:02.525Z,1004.42
2019-03-08T23:52:01.747Z,1004.42
2019-03-08T23:53:01.959Z,1004.42
2019-03-08T23:54:04.108Z,1004.42
2019-03-08T23:55:02.344Z,1004.37
2019-03-08T23:56:02.635Z,1004.37
2019-03-08T23:57:02.069Z,1004.37
2019-03-08T23:58:01.942Z,1004.37
2019-03-08T23:59:02.172Z,1004.46
